Time;durP1;ratioP1;P1;durP2;ratioP2;P2;SDS_P1;SDS_P2;PMS_P1;PMS_P2;Temp;Humidity;BMP_temperature;BMP_pressure;BME280_temperature;BME280_humidity;BME280_pressure;Samples;Min_cycle;Max_cycle;Signal;HPM_P1;HPM_P2
2023/09/20 00:00:24;;;;;;;7.13;1.77;;;17.20;99.90;;;;;;5132199;27;20019;-48
2023/09/20 00:02:50;;;;;;;5.85;1.65;;;17.50;99.90;;;;;;5132003;27;20111;-50
2023/09/20 00:05:17;;;;;;;12.07;2.17;;;17.20;99.90;;;;;;5132001;27;20526;-55
2023/09/20 00:07:43;;;;;;;7.57;1.67;;;14.90;99.90;;;;;;5131817;27;20394;-54
2023/09/20 00:10:12;;;;;;;7.60;1.85;;;17.80;99.90;;;;;;5131878;27;20026;-42
2023/09/20 00:12:40;;;;;;;5.82;1.50;;;17.00;99.90;;;;;;5131851;27;20377;-47
2023/09/20 00:15:07;;;;;;;8.77;2.00;;;17.00;99.90;;;;;;5132027;27;20033;-46
2023/09/20 00:17:34;;;;;;;11.10;1.75;;;17.90;99.90;;;;;;5122750;27;20073;-41
2023/09/20 00:20:03;;;;;;;8.43;1.60;;;17.40;99.90;;;;;;5126623;27;20027;-59
2023/09/20 00:22:28;;;;;;;12.20;2.58;;;17.60;99.90;;;;;;5132090;27;20015;-54
2023/09/20 00:24:55;;;;;;;16.42;2.67;;;15.00;99.90;;;;;;5132027;27;20054;-54
2023/09/20 00:27:21;;;;;;;10.93;2.03;;;19.40;99.90;;;;;;5131640;27;20449;-54
2023/09/20 00:29:46;;;;;;;7.20;2.17;;;17.30;99.90;;;;;;5131735;27;20019;-51
2023/09/20 00:32:12;;;;;;;9.18;1.55;;;17.30;99.90;;;;;;5131610;27;20108;-53
2023/09/20 00:34:37;;;;;;;6.25;1.02;;;18.10;99.90;;;;;;5131619;27;20027;-58
2023/09/20 00:37:04;;;;;;;5.82;1.77;;;;;;;;;;5131741;27;20107;-56
2023/09/20 00:39:30;;;;;;;6.18;1.40;;;17.50;99.90;;;;;;5131452;27;20047;-58
2023/09/20 00:41:57;;;;;;;7.82;1.70;;;17.80;99.90;;;;;;5131622;27;20030;-48
2023/09/20 00:44:25;;;;;;;5.40;1.38;;;17.10;99.90;;;;;;5131446;27;20474;-48
2023/09/20 00:46:54;;;;;;;6.20;1.77;;;19.20;99.90;;;;;;5131576;27;20035;-47
2023/09/20 00:49:20;;;;;;;;;;;17.20;99.90;;;;;;5131451;27;20019;-48
2023/09/20 00:51:47;;;;;;;5.22;1.30;;;17.20;99.90;;;;;;5131533;27;19930;-58
2023/09/20 00:54:15;;;;;;;5.28;1.23;;;17.30;99.90;;;;;;5131173;27;20114;-46
2023/09/20 00:56:41;;;;;;;5.32;1.15;;;19.30;99.90;;;;;;5131558;27;20098;-55
2023/09/20 00:59:07;;;;;;;5.60;1.45;;;17.20;99.90;;;;;;5131301;27;20102;-54
2023/09/20 01:01:39;;;;;;;3.22;1.40;;;17.20;99.90;;;;;;5131291;27;20059;-47
2023/09/20 01:04:05;;;;;;;4.28;0.95;;;17.40;99.90;;;;;;5131355;28;20025;-54
2023/09/20 01:06:32;;;;;;;5.65;1.40;;;17.20;99.90;;;;;;5117083;28;20028;-55
2023/09/20 01:08:58;;;;;;;4.15;0.90;;;19.00;99.90;;;;;;5131240;27;20054;-56
2023/09/20 01:11:24;;;;;;;6.93;1.63;;;16.30;99.90;;;;;;5131238;27;20015;-52
2023/09/20 01:13:51;;;;;;;4.18;1.10;;;19.50;99.90;;;;;;5131266;27;20031;-56
2023/09/20 01:16:17;;;;;;;4.97;1.33;;;17.10;99.90;;;;;;5131146;28;20027;-48
2023/09/20 01:18:44;;;;;;;2.15;1.00;;;17.20;99.90;;;;;;5116769;27;20031;-56
2023/09/20 01:21:11;;;;;;;4.18;1.52;;;17.30;99.90;;;;;;5131213;27;20020;-52
2023/09/20 01:23:38;;;;;;;7.43;1.75;;;17.50;99.90;;;;;;5131123;28;20387;-53
2023/09/20 01:26:04;;;;;;;8.38;1.63;;;18.70;99.90;;;;;;5131355;27;20102;-51
2023/09/20 01:28:30;;;;;;;3.63;1.25;;;14.00;99.90;;;;;;5130959;28;20027;-48
2023/09/20 01:30:58;;;;;;;8.07;1.42;;;17.00;99.90;;;;;;5131010;28;20091;-54
2023/09/20 01:33:24;;;;;;;6.13;1.77;;;17.70;99.90;;;;;;5131221;28;20023;-49
2023/09/20 01:35:50;;;;;;;3.90;2.13;;;;;;;;;;5131040;27;20028;-47
2023/09/20 01:38:16;;;;;;;9.48;1.70;;;14.70;99.90;;;;;;5130776;27;20043;-61
2023/09/20 01:40:41;;;;;;;2.13;0.85;;;17.30;99.90;;;;;;5130837;27;20094;-53
2023/09/20 01:43:07;;;;;;;1.85;0.60;;;16.90;99.90;;;;;;5130926;27;20032;-58
2023/09/20 01:45:34;;;;;;;1.88;0.70;;;18.30;99.90;;;;;;5130809;27;20473;-56
2023/09/20 01:48:00;;;;;;;3.83;0.82;;;17.10;99.90;;;;;;5130997;28;20098;-56
2023/09/20 01:50:27;;;;;;;2.47;0.70;;;18.40;99.90;;;;;;5130882;28;20016;-55
2023/09/20 01:52:54;;;;;;;1.00;0.57;;;17.00;99.90;;;;;;5130754;28;20019;-47
2023/09/20 01:55:21;;;;;;;2.92;0.70;;;17.50;99.90;;;;;;5130778;28;20076;-41
2023/09/20 01:57:52;;;;;;;1.00;0.60;;;18.70;99.90;;;;;;5130816;27;20094;-50
2023/09/20 02:00:22;;;;;;;2.13;0.70;;;16.70;99.90;;;;;;5132791;27;20050;-53
2023/09/20 02:02:55;;;;;;;0.95;0.50;;;16.30;99.90;;;;;;5115884;27;20395;-45
2023/09/20 02:05:23;;;;;;;0.65;0.40;;;17.10;99.90;;;;;;5134517;27;20098;-59
2023/09/20 02:07:51;;;;;;;2.50;0.73;;;15.90;99.90;;;;;;5134401;27;20027;-46
2023/09/20 02:10:17;;;;;;;0.88;0.45;;;16.50;99.90;;;;;;5134242;27;20475;-56
2023/09/20 02:12:47;;;;;;;0.50;0.30;;;16.10;99.90;;;;;;5134230;27;20083;-47
2023/09/20 02:15:14;;;;;;;1.63;0.55;;;14.70;99.90;;;;;;5134181;27;20034;-47
2023/09/20 02:17:41;;;;;;;3.00;0.95;;;18.70;99.90;;;;;;5124175;27;20080;-50
2023/09/20 02:20:09;;;;;;;3.17;0.68;;;13.50;99.90;;;;;;5130253;27;20106;-54
2023/09/20 02:22:38;;;;;;;1.45;0.47;;;17.00;99.90;;;;;;5134232;27;20015;-48
2023/09/20 02:25:10;;;;;;;1.33;0.70;;;16.10;99.90;;;;;;5133955;27;20027;-54
2023/09/20 02:27:35;;;;;;;6.65;1.00;;;18.40;99.90;;;;;;5134009;27;20440;-45
2023/09/20 02:30:01;;;;;;;1.90;0.57;;;16.10;99.90;;;;;;5134092;27;20102;-52
2023/09/20 02:32:27;;;;;;;1.95;0.60;;;18.60;99.90;;;;;;5133851;27;20051;-49
2023/09/20 02:34:52;;;;;;;4.85;0.57;;;17.00;99.90;;;;;;5133854;27;20372;-50
2023/09/20 02:37:19;;;;;;;1.00;0.50;;;16.80;99.90;;;;;;5133755;27;20094;-49
2023/09/20 02:39:45;;;;;;;4.38;0.80;;;17.00;99.90;;;;;;5133678;27;20074;-55
2023/09/20 02:42:11;;;;;;;3.92;0.73;;;14.30;99.90;;;;;;5133731;27;20537;-56
2023/09/20 02:44:38;;;;;;;4.68;0.80;;;14.00;99.90;;;;;;5133800;27;20105;-49
2023/09/20 02:47:03;;;;;;;9.25;1.20;;;17.90;99.90;;;;;;5133666;27;20027;-47
2023/09/20 02:49:29;;;;;;;0.82;0.73;;;17.00;99.90;;;;;;5133513;27;20015;-46
2023/09/20 02:51:54;;;;;;;6.25;1.00;;;17.30;99.90;;;;;;5133490;27;20059;-55
2023/09/20 02:54:20;;;;;;;3.60;1.10;;;;;;;;;;5133238;27;20443;-43
2023/09/20 02:56:46;;;;;;;4.10;1.00;;;17.00;99.90;;;;;;5133572;27;20068;-57
2023/09/20 02:59:11;;;;;;;2.47;1.00;;;17.00;99.90;;;;;;5122991;27;20134;-49
2023/09/20 03:01:38;;;;;;;9.45;1.08;;;17.40;99.90;;;;;;5112573;28;20383;-54
2023/09/20 03:04:04;;;;;;;1.65;1.00;;;16.80;99.90;;;;;;5116066;27;20028;-51
2023/09/20 03:06:30;;;;;;;7.10;1.13;;;17.10;99.90;;;;;;5127905;27;20031;-47
2023/09/20 03:08:57;;;;;;;5.00;0.77;;;16.70;99.90;;;;;;5118907;27;20161;-45
2023/09/20 03:11:25;;;;;;;5.50;1.25;;;16.70;99.90;;;;;;5118562;27;20490;-47
2023/09/20 03:13:51;;;;;;;2.05;0.85;;;16.60;99.90;;;;;;5133171;27;20084;-50
2023/09/20 03:16:20;;;;;;;6.95;1.08;;;13.40;99.90;;;;;;5128713;27;20020;-49
2023/09/20 03:18:46;;;;;;;5.68;0.73;;;17.60;99.90;;;;;;5123344;27;20027;-47
2023/09/20 03:21:11;;;;;;;2.05;0.75;;;19.00;99.90;;;;;;5132902;27;20031;-46
2023/09/20 03:23:37;;;;;;;3.63;1.13;;;17.20;99.90;;;;;;5132866;27;20026;-44
2023/09/20 03:26:06;;;;;;;4.10;1.05;;;16.70;99.90;;;;;;5132962;27;20031;-53
2023/09/20 03:28:35;;;;;;;5.07;1.67;;;17.00;99.90;;;;;;5132801;27;20394;-47
2023/09/20 03:31:10;;;;;;;5.95;1.00;;;16.80;99.90;;;;;;5132788;27;20062;-50
2023/09/20 03:33:36;;;;;;;6.07;1.67;;;18.60;99.90;;;;;;5126298;27;20563;-42
2023/09/20 03:36:09;;;;;;;5.43;1.10;;;14.00;99.90;;;;;;5124554;27;20100;-54
2023/09/20 03:38:35;;;;;;;5.05;1.30;;;16.80;99.90;;;;;;5132310;27;20499;-50
2023/09/20 03:41:01;;;;;;;3.70;1.20;;;16.80;99.90;;;;;;5132630;27;20070;-44
2023/09/20 03:43:27;;;;;;;4.85;1.55;;;16.80;99.90;;;;;;5132308;27;20034;-48
2023/09/20 03:45:54;;;;;;;8.02;1.10;;;16.80;99.90;;;;;;5132564;27;20472;-49
2023/09/20 03:48:20;;;;;;;11.05;1.15;;;16.80;99.90;;;;;;5132233;27;20061;-49
2023/09/20 03:50:46;;;;;;;6.03;1.10;;;15.90;99.90;;;;;;5132490;27;20031;-53
2023/09/20 03:53:11;;;;;;;5.45;1.00;;;16.80;99.90;;;;;;5132562;27;20045;-51
2023/09/20 03:55:37;;;;;;;7.75;1.58;;;16.30;99.90;;;;;;5132123;27;20559;-54
2023/09/20 03:58:03;;;;;;;4.68;1.20;;;16.90;99.90;;;;;;5132280;27;20388;-46
2023/09/20 04:00:31;;;;;;;5.25;1.55;;;16.90;99.90;;;;;;5132097;27;20088;-50
2023/09/20 04:02:58;;;;;;;4.85;1.40;;;18.00;99.90;;;;;;5132091;27;20023;-57
2023/09/20 04:05:24;;;;;;;6.68;1.67;;;17.50;99.90;;;;;;5132140;27;20479;-45
2023/09/20 04:07:50;;;;;;;3.65;1.25;;;16.80;99.90;;;;;;5124805;27;20035;-43
2023/09/20 04:10:17;;;;;;;3.72;1.10;;;16.40;99.90;;;;;;5124926;27;20023;-46
2023/09/20 04:12:43;;;;;;;11.57;1.60;;;16.90;99.90;;;;;;5132011;27;20025;-50
2023/09/20 04:15:09;;;;;;;5.57;1.35;;;17.10;99.90;;;;;;5131941;27;20037;-55
2023/09/20 04:17:35;;;;;;;8.25;1.85;;;18.10;99.90;;;;;;5131795;27;20019;-47
2023/09/20 04:20:05;;;;;;;4.50;1.10;;;16.60;99.90;;;;;;5132110;27;20031;-50
2023/09/20 04:22:36;;;;;;;7.32;0.90;;;16.90;99.90;;;;;;5131018;27;20114;-43
2023/09/20 04:25:04;;;;;;;5.90;1.10;;;16.50;99.90;;;;;;5113872;27;20023;-56
2023/09/20 04:27:31;;;;;;;3.90;0.77;;;16.90;99.90;;;;;;5131600;27;20023;-52
2023/09/20 04:29:57;;;;;;;5.93;1.30;;;17.60;99.90;;;;;;5131725;27;20069;-50
2023/09/20 04:32:23;;;;;;;5.07;0.90;;;17.00;99.90;;;;;;5132044;27;20043;-54
2023/09/20 04:34:53;;;;;;;3.67;1.35;;;16.80;99.90;;;;;;5131339;27;20035;-42
2023/09/20 04:37:19;;;;;;;5.55;1.35;;;17.10;99.90;;;;;;5131629;27;20490;-50
2023/09/20 04:39:45;;;;;;;4.50;1.20;;;17.50;99.90;;;;;;5131170;27;20042;-49
2023/09/20 04:42:13;;;;;;;2.65;0.90;;;16.60;99.90;;;;;;5131586;27;20019;-51
2023/09/20 04:44:39;;;;;;;7.10;0.93;;;17.10;99.90;;;;;;5129826;27;20102;-52
2023/09/20 04:47:05;;;;;;;3.88;1.17;;;;;;;;;;5111086;28;20164;-54
2023/09/20 04:49:30;;;;;;;4.00;1.48;;;17.50;99.90;;;;;;5111926;28;20441;-50
2023/09/20 04:52:00;;;;;;;8.63;1.67;;;17.40;99.90;;;;;;5110840;28;20087;-49
2023/09/20 04:54:26;;;;;;;6.45;1.98;;;16.60;99.90;;;;;;5110922;28;20039;-47
2023/09/20 04:56:53;;;;;;;3.20;1.25;;;18.20;99.90;;;;;;5110625;28;20384;-43
2023/09/20 04:59:19;;;;;;;5.43;1.77;;;17.30;99.90;;;;;;5110789;28;20032;-56
2023/09/20 05:01:45;;;;;;;5.57;1.23;;;17.30;99.90;;;;;;5110562;28;20391;-59
2023/09/20 05:04:18;;;;;;;2.22;0.82;;;;;;;;;;5110720;28;20055;-43
2023/09/20 05:06:45;;;;;;;6.38;1.33;;;17.70;99.90;;;;;;5110605;28;20492;-51
2023/09/20 05:09:11;;;;;;;6.53;1.40;;;17.40;99.90;;;;;;5114872;28;20019;-54
2023/09/20 05:11:37;;;;;;;4.30;1.40;;;16.70;99.90;;;;;;5131300;27;20019;-56
2023/09/20 05:14:07;;;;;;;4.60;1.73;;;18.00;99.90;;;;;;5131120;27;20050;-47
2023/09/20 05:16:33;;;;;;;6.65;1.40;;;19.40;99.90;;;;;;5131217;27;20019;-55
2023/09/20 05:18:59;;;;;;;5.22;1.75;;;17.70;99.90;;;;;;5131138;28;20053;-45
2023/09/20 05:21:25;;;;;;;3.30;1.13;;;16.70;99.90;;;;;;5131260;28;20046;-52
2023/09/20 05:23:51;;;;;;;6.28;1.05;;;16.70;99.90;;;;;;5131075;28;20027;-55
2023/09/20 05:26:18;;;;;;;4.65;1.10;;;14.50;99.90;;;;;;5131035;27;20558;-56
2023/09/20 05:28:44;;;;;;;3.63;1.00;;;19.10;99.90;;;;;;5131144;27;20024;-49
2023/09/20 05:31:10;;;;;;;6.90;1.27;;;17.50;99.90;;;;;;5131108;28;20045;-48
2023/09/20 05:33:35;;;;;;;4.15;1.10;;;17.00;99.90;;;;;;5131809;27;20023;-56
2023/09/20 05:36:01;;;;;;;4.80;1.30;;;15.90;99.90;;;;;;5134931;27;20031;-54
2023/09/20 05:38:27;;;;;;;5.93;1.35;;;17.80;99.90;;;;;;5134816;27;20110;-54
2023/09/20 05:40:53;;;;;;;3.75;1.20;;;14.40;99.90;;;;;;5134791;27;20066;-53
2023/09/20 05:43:19;;;;;;;7.85;1.63;;;18.30;99.90;;;;;;5134786;27;20480;-50
2023/09/20 05:45:44;;;;;;;5.05;1.50;;;16.60;99.90;;;;;;5134894;27;20026;-57
2023/09/20 05:48:10;;;;;;;4.10;1.20;;;17.60;99.90;;;;;;5134692;27;20023;-53
2023/09/20 05:50:36;;;;;;;12.68;1.63;;;16.70;99.90;;;;;;5134778;27;20027;-49
2023/09/20 05:53:06;;;;;;;10.48;2.08;;;17.00;99.90;;;;;;5134656;27;20026;-50
2023/09/20 05:55:33;;;;;;;7.55;1.98;;;16.50;99.90;;;;;;5134428;27;20038;-50
2023/09/20 05:58:00;;;;;;;6.22;1.60;;;19.40;99.90;;;;;;5134331;27;20516;-53
2023/09/20 06:00:27;;;;;;;5.82;1.40;;;;;;;;;;5134353;27;20047;-53
2023/09/20 06:02:53;;;;;;;6.32;2.03;;;;;;;;;;5134325;27;20027;-50
2023/09/20 06:05:19;;;;;;;5.40;1.50;;;16.60;99.90;;;;;;5134272;27;20030;-55
2023/09/20 06:07:45;;;;;;;8.35;1.42;;;17.70;99.90;;;;;;5127546;27;20016;-56
2023/09/20 06:10:11;;;;;;;9.73;1.92;;;16.40;99.90;;;;;;5126397;27;20031;-52
2023/09/20 06:12:37;;;;;;;7.35;2.60;;;17.10;99.90;;;;;;5134153;27;20076;-41
2023/09/20 06:15:04;;;;;;;12.85;2.20;;;16.70;99.90;;;;;;5134373;27;20051;-52
2023/09/20 06:17:33;;;;;;;10.35;2.35;;;17.00;99.90;;;;;;5134219;27;20023;-58
2023/09/20 06:20:07;;;;;;;18.17;2.72;;;17.20;99.90;;;;;;5134089;27;20376;-53
2023/09/20 06:22:33;;;;;;;13.18;2.80;;;17.40;99.90;;;;;;5133856;27;20024;-42
2023/09/20 06:24:59;;;;;;;12.07;2.60;;;16.80;99.90;;;;;;5134122;27;20464;-52
2023/09/20 06:27:30;;;;;;;15.13;2.35;;;18.00;99.90;;;;;;5134208;27;20015;-56
2023/09/20 06:29:56;;;;;;;7.07;1.90;;;16.80;99.90;;;;;;5134126;27;20551;-48
2023/09/20 06:32:22;;;;;;;8.60;2.25;;;16.90;99.90;;;;;;5134050;27;20106;-53
2023/09/20 06:34:48;;;;;;;5.50;2.42;;;17.10;99.90;;;;;;5131094;27;20110;-52
2023/09/20 06:37:14;;;;;;;9.43;1.75;;;16.80;99.90;;;;;;5133616;27;20123;-54
2023/09/20 06:39:41;;;;;;;7.32;2.20;;;17.10;99.90;;;;;;5133453;27;20043;-48
2023/09/20 06:42:08;;;;;;;7.68;2.13;;;17.30;99.90;;;;;;5134039;27;20046;-49
2023/09/20 06:44:40;;;;;;;10.10;2.22;;;17.00;99.90;;;;;;5133427;27;20023;-42
2023/09/20 06:47:06;;;;;;;4.50;2.13;;;16.70;99.90;;;;;;5124210;27;20034;-46
2023/09/20 06:49:32;;;;;;;12.38;2.75;;;16.90;99.90;;;;;;5112914;28;20076;-57
2023/09/20 06:52:01;;;;;;;6.57;2.22;;;17.10;99.90;;;;;;5122829;27;20380;-55
2023/09/20 06:54:28;;;;;;;8.32;2.17;;;14.20;99.90;;;;;;5112934;28;20122;-51
2023/09/20 06:56:57;;;;;;;8.63;2.15;;;;;;;;;;5112775;27;20050;-51
2023/09/20 06:59:22;;;;;;;5.43;1.93;;;16.90;99.90;;;;;;5113036;28;20032;-41
2023/09/20 07:01:50;;;;;;;5.43;1.95;;;19.00;99.90;;;;;;5112763;28;20031;-41
2023/09/20 07:04:16;;;;;;;9.85;1.60;;;17.50;99.90;;;;;;5112627;28;20055;-41
2023/09/20 07:06:42;;;;;;;4.20;1.50;;;16.90;99.90;;;;;;5121013;27;20575;-41
2023/09/20 07:09:08;;;;;;;7.47;1.52;;;;;;;;;;5116029;27;20170;-55
2023/09/20 07:11:34;;;;;;;6.28;1.65;;;16.80;99.90;;;;;;5133015;27;20065;-58
2023/09/20 07:14:05;;;;;;;7.53;1.63;;;17.20;99.90;;;;;;5130898;27;20067;-47
2023/09/20 07:16:33;;;;;;;3.42;1.30;;;19.90;99.90;;;;;;5112487;28;20024;-54
2023/09/20 07:19:04;;;;;;;5.20;1.52;;;17.70;99.90;;;;;;5116613;27;20027;-58
2023/09/20 07:21:30;;;;;;;3.03;1.55;;;;;;;;;;5112401;28;20066;-56
2023/09/20 07:23:59;;;;;;;3.20;1.33;;;18.00;99.90;;;;;;5112273;28;20033;-48
2023/09/20 07:26:26;;;;;;;4.32;1.20;;;16.90;99.90;;;;;;5111828;28;20031;-54
2023/09/20 07:28:52;;;;;;;6.95;1.88;;;19.60;99.90;;;;;;5112398;27;20023;-47
2023/09/20 07:31:20;;;;;;;6.20;1.85;;;16.70;99.90;;;;;;5118206;27;20469;-54
2023/09/20 07:33:46;;;;;;;2.70;1.60;;;;;;;;;;5111762;28;20023;-46
2023/09/20 07:36:12;;;;;;;5.93;1.95;;;16.30;99.90;;;;;;5119018;27;20059;-55
2023/09/20 07:38:38;;;;;;;7.63;2.15;;;14.50;99.90;;;;;;5127680;27;20471;-55
2023/09/20 07:41:13;;;;;;;6.13;2.42;;;16.50;99.90;;;;;;5129132;27;20080;-46
2023/09/20 07:43:44;;;;;;;5.88;2.35;;;16.40;99.90;;;;;;5128333;27;20059;-46
2023/09/20 07:46:13;;;;;;;5.32;1.92;;;17.00;99.90;;;;;;5126132;27;20413;-49
2023/09/20 07:48:47;;;;;;;2.67;1.20;;;16.60;99.90;;;;;;5124893;27;20055;-52
2023/09/20 07:51:14;;;;;;;4.22;1.70;;;17.50;99.90;;;;;;5112324;27;20028;-46
2023/09/20 07:53:40;;;;;;;7.38;1.50;;;16.50;99.90;;;;;;5114478;27;20024;-53
2023/09/20 07:56:06;;;;;;;10.25;1.95;;;16.90;99.90;;;;;;5122894;27;20420;-48
2023/09/20 07:58:32;;;;;;;3.83;1.70;;;17.50;99.90;;;;;;5130732;27;20035;-55
2023/09/20 08:00:59;;;;;;;10.75;2.28;;;17.30;99.90;;;;;;5127109;27;20078;-47
2023/09/20 08:03:28;;;;;;;6.25;2.20;;;17.30;99.90;;;;;;5132053;27;20053;-43
2023/09/20 08:05:55;;;;;;;5.10;1.80;;;15.90;99.90;;;;;;5130635;27;20023;-49
2023/09/20 08:08:20;;;;;;;5.38;1.70;;;17.20;99.90;;;;;;5119879;27;20046;-51
2023/09/20 08:10:46;;;;;;;8.52;1.85;;;17.10;99.90;;;;;;5119491;27;20479;-48
2023/09/20 08:13:12;;;;;;;8.32;2.28;;;17.90;99.90;;;;;;5113471;27;20015;-44
2023/09/20 08:15:42;;;;;;;5.65;2.10;;;17.10;99.90;;;;;;5123245;27;20406;-50
2023/09/20 08:20:55;;;;;;;4.65;1.95;;;16.50;99.90;;;;;;5122289;27;20081;-50
2023/09/20 09:02:16;;;;;;;8.02;3.17;;;18.70;99.90;;;;;;5125105;28;20042;-56
2023/09/20 09:04:44;;;;;;;16.05;4.60;;;17.80;99.90;;;;;;5120665;28;20035;-56
2023/09/20 09:07:11;;;;;;;11.93;3.47;;;15.80;99.90;;;;;;5108924;28;20020;-55
2023/09/20 09:09:41;;;;;;;16.85;3.88;;;19.00;99.90;;;;;;5118216;27;20102;-57
2023/09/20 09:12:07;;;;;;;7.15;3.30;;;;;;;;;;5131374;27;20039;-45
2023/09/20 09:14:35;;;;;;;9.27;3.30;;;20.60;99.90;;;;;;5114042;27;20050;-47
2023/09/20 09:17:06;;;;;;;10.48;3.63;;;18.20;99.90;;;;;;5125934;27;20026;-56
2023/09/20 09:19:32;;;;;;;12.07;3.13;;;19.10;99.90;;;;;;5130879;27;20038;-43
2023/09/20 09:21:58;;;;;;;11.27;2.97;;;19.10;99.90;;;;;;5117808;27;20023;-47
2023/09/20 09:24:24;;;;;;;16.25;3.45;;;18.30;99.90;;;;;;5118124;27;20020;-48
2023/09/20 09:27:04;;;;;;;11.75;3.78;;;18.10;99.90;;;;;;5121522;27;20110;-48
2023/09/20 09:29:30;;;;;;;9.50;3.40;;;20.00;99.90;;;;;;5122924;27;20015;-56
2023/09/20 09:31:56;;;;;;;14.43;3.65;;;17.70;99.90;;;;;;5118246;27;20027;-57
2023/09/20 09:34:22;;;;;;;10.20;3.28;;;18.50;99.90;;;;;;5115195;27;20039;-50
2023/09/20 09:36:48;;;;;;;12.52;2.72;;;17.90;99.90;;;;;;5132532;27;20015;-57
2023/09/20 09:39:14;;;;;;;15.02;4.25;;;18.60;99.90;;;;;;5124956;27;20043;-48
2023/09/20 09:41:44;;;;;;;8.98;3.47;;;20.70;99.90;;;;;;5132887;27;20489;-48
2023/09/20 09:44:11;;;;;;;13.63;3.90;;;18.30;99.90;;;;;;5121852;27;20032;-46
2023/09/20 09:46:41;;;;;;;12.00;3.40;;;18.60;99.90;;;;;;5115971;27;20051;-41
2023/09/20 09:49:11;;;;;;;8.80;2.90;;;18.60;99.90;;;;;;5119434;27;20015;-41
2023/09/20 09:51:45;;;;;;;10.18;3.53;;;18.20;99.90;;;;;;5114165;28;20031;-45
2023/09/20 09:54:13;;;;;;;8.77;3.35;;;18.50;99.90;;;;;;5116910;27;20027;-45
2023/09/20 09:56:39;;;;;;;9.25;3.58;;;18.10;99.90;;;;;;5113918;28;20076;-46
2023/09/20 09:59:05;;;;;;;11.98;2.90;;;18.10;99.90;;;;;;5117678;27;20418;-45
2023/09/20 10:01:39;;;;;;;7.82;2.83;;;18.00;99.90;;;;;;5128653;27;20020;-47
2023/09/20 10:04:08;;;;;;;12.63;3.63;;;18.30;99.90;;;;;;5128164;27;20015;-41
2023/09/20 10:06:47;;;;;;;13.38;3.65;;;18.60;99.90;;;;;;5123372;27;20030;-48
2023/09/20 10:09:17;;;;;;;12.05;3.25;;;18.10;99.90;;;;;;5115978;27;20023;-54
2023/09/20 10:11:43;;;;;;;7.00;3.03;;;18.40;99.90;;;;;;5126674;27;20015;-60
2023/09/20 10:14:10;;;;;;;6.13;2.80;;;18.00;99.90;;;;;;5124541;27;20036;-45
2023/09/20 10:16:42;;;;;;;10.90;2.83;;;17.50;99.90;;;;;;5131940;27;20034;-58
2023/09/20 10:19:11;;;;;;;14.57;3.10;;;17.70;99.90;;;;;;5117458;27;20035;-47
2023/09/20 10:21:40;;;;;;;11.93;3.67;;;20.80;99.90;;;;;;5122911;27;20160;-48
2023/09/20 10:24:08;;;;;;;11.18;3.33;;;19.70;99.90;;;;;;5128093;27;20046;-54
2023/09/20 10:26:40;;;;;;;12.23;3.33;;;18.10;99.90;;;;;;5113624;28;20028;-41
2023/09/20 10:29:30;;;;;;;14.02;3.40;;;19.10;99.90;;;;;;5113239;28;20400;-41
2023/09/20 10:32:06;;;;;;;13.82;3.00;;;19.60;99.90;;;;;;5113188;28;20016;-50
2023/09/20 10:34:37;;;;;;;9.30;3.15;;;19.90;99.90;;;;;;5113120;28;20074;-41
2023/09/20 10:37:07;;;;;;;8.05;3.60;;;19.70;99.90;;;;;;5113311;28;20020;-53
2023/09/20 10:39:33;;;;;;;7.47;3.10;;;;;;;;;;5112875;28;20055;-48
2023/09/20 10:42:12;;;;;;;9.00;3.10;;;19.60;99.90;;;;;;5119564;27;20148;-56
2023/09/20 10:44:41;;;;;;;13.63;3.08;;;19.50;99.90;;;;;;5128274;27;20031;-52
2023/09/20 10:47:13;;;;;;;12.70;3.03;;;22.10;99.90;;;;;;5130283;27;20051;-50
2023/09/20 10:49:47;;;;;;;12.52;3.10;;;20.90;99.90;;;;;;5127123;27;20571;-53
2023/09/20 10:52:34;;;;;;;8.13;2.92;;;21.60;99.90;;;;;;5122468;27;20046;-55
2023/09/20 10:55:15;;;;;;;6.85;2.80;;;19.30;99.90;;;;;;5116135;27;20035;-47
2023/09/20 10:57:42;;;;;;;8.20;2.70;;;19.40;99.90;;;;;;5115656;27;20083;-55
2023/09/20 11:00:08;;;;;;;13.75;2.72;;;19.50;99.90;;;;;;5117804;27;20043;-46
2023/09/20 11:02:37;;;;;;;16.15;3.25;;;22.40;99.90;;;;;;5125851;27;20437;-42
2023/09/20 11:05:06;;;;;;;11.70;3.40;;;20.20;99.90;;;;;;5115262;27;20023;-44
2023/09/20 11:07:32;;;;;;;8.23;2.78;;;20.90;99.90;;;;;;5111211;27;20020;-52
2023/09/20 11:09:58;;;;;;;9.52;2.92;;;17.10;99.90;;;;;;5121668;27;20079;-47
2023/09/20 11:12:24;;;;;;;7.57;3.13;;;20.20;99.90;;;;;;5114853;27;20110;-43
2023/09/20 11:14:51;;;;;;;9.30;3.50;;;20.00;99.90;;;;;;5128651;27;20047;-42
2023/09/20 11:17:18;;;;;;;6.53;2.42;;;19.80;99.90;;;;;;5127037;27;20046;-49
2023/09/20 11:19:45;;;;;;;12.48;3.03;;;20.60;99.90;;;;;;5120075;27;20084;-52
2023/09/20 11:22:13;;;;;;;10.75;2.85;;;20.90;99.90;;;;;;5111400;27;20016;-54
2023/09/20 11:24:41;;;;;;;12.32;3.30;;;20.90;99.90;;;;;;5119976;27;20153;-49
2023/09/20 11:27:08;;;;;;;10.38;2.47;;;20.90;99.90;;;;;;5120849;27;20062;-44
2023/09/20 11:29:40;;;;;;;9.25;2.75;;;21.60;99.90;;;;;;5115323;27;20055;-47
2023/09/20 11:32:11;;;;;;;9.95;3.63;;;20.20;99.90;;;;;;5111389;27;20028;-55
2023/09/20 11:34:51;;;;;;;6.55;2.92;;;21.50;99.90;;;;;;5111845;27;20032;-45
2023/09/20 11:37:19;;;;;;;9.02;2.53;;;20.20;99.90;;;;;;5121836;27;20039;-59
2023/09/20 11:39:48;;;;;;;12.27;2.70;;;16.50;99.90;;;;;;5111034;27;20048;-49
2023/09/20 11:42:27;;;;;;;7.60;2.45;;;21.00;99.90;;;;;;5112102;27;20019;-56
2023/09/20 11:44:58;;;;;;;8.88;2.70;;;20.20;99.90;;;;;;5117882;27;20027;-48
2023/09/20 11:47:24;;;;;;;11.77;2.70;;;20.30;99.90;;;;;;5113256;27;20030;-50
2023/09/20 11:49:50;;;;;;;5.95;2.42;;;20.10;99.90;;;;;;5112954;27;20348;-51
2023/09/20 11:52:20;;;;;;;9.88;2.75;;;20.20;99.90;;;;;;5123506;27;20043;-48
2023/09/20 11:54:47;;;;;;;8.88;2.42;;;19.90;99.90;;;;;;5111221;27;20123;-53
2023/09/20 11:57:16;;;;;;;11.75;3.38;;;19.80;99.90;;;;;;5110826;27;20080;-50
2023/09/20 11:59:43;;;;;;;6.85;2.47;;;;;;;;;;5110948;27;20031;-52
2023/09/20 12:02:09;;;;;;;7.10;2.85;;;18.10;99.90;;;;;;5110884;27;20016;-50
2023/09/20 12:04:35;;;;;;;7.25;2.55;;;22.50;99.90;;;;;;5115492;27;20027;-55
2023/09/20 12:07:01;;;;;;;8.70;2.58;;;20.40;99.90;;;;;;5131009;27;20115;-50
2023/09/20 12:09:27;;;;;;;11.10;2.20;;;22.20;99.90;;;;;;5111012;27;20051;-49
2023/09/20 12:11:53;;;;;;;7.65;2.22;;;20.30;99.90;;;;;;5116025;27;20027;-46
2023/09/20 12:14:18;;;;;;;8.32;2.47;;;20.30;99.90;;;;;;5126060;27;20034;-48
2023/09/20 12:16:47;;;;;;;9.13;2.20;;;20.80;99.90;;;;;;5118245;27;20055;-55
2023/09/20 12:19:15;;;;;;;6.22;2.38;;;19.90;99.90;;;;;;5097174;27;20075;-55
2023/09/20 12:21:41;;;;;;;8.07;2.55;;;22.20;99.90;;;;;;5118811;27;20551;-51
2023/09/20 12:24:06;;;;;;;9.80;2.20;;;20.00;99.90;;;;;;5127468;27;20027;-49
2023/09/20 12:26:33;;;;;;;6.13;2.20;;;;;;;;;;5129129;27;20027;-45
2023/09/20 12:28:58;;;;;;;6.65;1.90;;;20.10;99.90;;;;;;5125114;27;20376;-43
2023/09/20 12:31:25;;;;;;;7.00;1.83;;;21.30;99.90;;;;;;5121699;27;20030;-46
2023/09/20 12:33:52;;;;;;;4.40;1.92;;;20.80;99.90;;;;;;5112914;27;20103;-55
2023/09/20 12:36:18;;;;;;;11.75;2.10;;;20.40;99.90;;;;;;5115185;27;20032;-59
2023/09/20 12:38:44;;;;;;;7.82;2.38;;;20.50;99.90;;;;;;5117283;27;20114;-54
2023/09/20 12:41:11;;;;;;;8.38;2.55;;;23.50;99.90;;;;;;5124220;27;20159;-50
2023/09/20 12:43:37;;;;;;;6.38;2.15;;;21.20;99.90;;;;;;5127536;27;20023;-55
2023/09/20 12:46:04;;;;;;;7.03;2.50;;;20.60;99.90;;;;;;5119806;27;20038;-58
2023/09/20 12:48:30;;;;;;;12.95;2.72;;;21.20;99.90;;;;;;5116866;28;20027;-54
2023/09/20 12:50:56;;;;;;;7.68;1.75;;;20.80;99.90;;;;;;5116063;28;20038;-51
2023/09/20 12:53:23;;;;;;;9.00;2.13;;;20.30;99.90;;;;;;5110641;28;20035;-54
2023/09/20 12:55:50;;;;;;;11.73;2.38;;;20.20;99.90;;;;;;5117948;28;20023;-47
2023/09/20 12:58:16;;;;;;;10.30;2.70;;;22.60;99.90;;;;;;5113443;28;20023;-50
2023/09/20 13:00:43;;;;;;;6.13;2.40;;;20.90;99.90;;;;;;5125371;27;20832;-51
2023/09/20 13:03:08;;;;;;;5.93;1.90;;;21.20;99.90;;;;;;5122828;28;20019;-57
2023/09/20 13:05:37;;;;;;;8.18;2.20;;;23.60;99.90;;;;;;5127317;28;20046;-52
2023/09/20 13:08:04;;;;;;;;;;;20.90;99.90;;;;;;5120601;27;20073;-51
2023/09/20 13:10:32;;;;;;;5.60;1.85;;;23.30;99.90;;;;;;5125915;28;19907;-50
2023/09/20 13:12:58;;;;;;;11.35;2.35;;;23.10;99.90;;;;;;5131189;27;20023;-46
2023/09/20 13:15:23;;;;;;;6.03;1.90;;;20.50;99.90;;;;;;5130667;27;20559;-47
2023/09/20 13:17:51;;;;;;;9.13;2.10;;;21.10;99.90;;;;;;5111336;28;20028;-43
2023/09/20 13:20:18;;;;;;;8.27;2.15;;;20.60;99.90;;;;;;5111678;28;20081;-48
2023/09/20 13:22:52;;;;;;;6.82;2.72;;;21.40;99.90;;;;;;5118664;28;20106;-46
2023/09/20 13:25:19;;;;;;;10.05;2.05;;;20.20;99.90;;;;;;5111850;28;20077;-48
2023/09/20 13:27:46;;;;;;;10.95;2.20;;;20.50;99.90;;;;;;5126563;27;20023;-56
2023/09/20 13:30:12;;;;;;;15.57;2.08;;;20.70;99.90;;;;;;5131077;27;20027;-51
2023/09/20 13:32:40;;;;;;;7.05;1.90;;;19.90;99.90;;;;;;5130007;27;20031;-57